sensor_id;sensor_type;location;lat;lon;timestamp;pressure;altitude;pressure_sealevel;temperature;humidity
37304;BME280;23188;51.188;16.374;2023-07-08T00:01:37;100784.24;;;16.25;98.36
37304;BME280;23188;51.188;16.374;2023-07-08T00:05:40;100782.25;;;16.30;97.33
37304;BME280;23188;51.188;16.374;2023-07-08T00:26:34;100779.98;;;16.22;95.59
37304;BME280;23188;51.188;16.374;2023-07-08T00:30:37;100778.67;;;16.16;95.92
37304;BME280;23188;51.188;16.374;2023-07-08T00:34:41;100772.70;;;16.18;95.44
37304;BME280;23188;51.188;16.374;2023-07-08T00:38:46;100772.41;;;16.23;94.97
37304;BME280;23188;51.188;16.374;2023-07-08T00:42:49;100765.92;;;16.25;94.64
37304;BME280;23188;51.188;16.374;2023-07-08T00:47:03;100762.20;;;16.25;94.30
37304;BME280;23188;51.188;16.374;2023-07-08T00:51:09;100759.95;;;16.19;94.74
37304;BME280;23188;51.188;16.374;2023-07-08T00:55:16;100763.50;;;16.06;95.21
37304;BME280;23188;51.188;16.374;2023-07-08T00:59:29;100763.91;;;15.98;95.86
37304;BME280;23188;51.188;16.374;2023-07-08T01:03:47;100762.70;;;15.88;97.00
37304;BME280;23188;51.188;16.374;2023-07-08T01:07:57;100756.16;;;15.78;97.89
37304;BME280;23188;51.188;16.374;2023-07-08T01:12:09;100760.97;;;15.76;97.59
37304;BME280;23188;51.188;16.374;2023-07-08T01:16:14;100761.63;;;15.73;97.81
37304;BME280;23188;51.188;16.374;2023-07-08T01:20:17;100761.23;;;15.68;98.13
37304;BME280;23188;51.188;16.374;2023-07-08T01:24:29;100761.77;;;15.68;98.12
37304;BME280;23188;51.188;16.374;2023-07-08T01:28:35;100755.05;;;15.69;98.26
37304;BME280;23188;51.188;16.374;2023-07-08T01:32:46;100753.02;;;15.66;98.58
37304;BME280;23188;51.188;16.374;2023-07-08T01:37:15;100746.48;;;15.50;99.84
37304;BME280;23188;51.188;16.374;2023-07-08T01:41:18;100744.70;;;15.37;99.99
37304;BME280;23188;51.188;16.374;2023-07-08T01:45:24;100746.73;;;15.32;99.80
37304;BME280;23188;51.188;16.374;2023-07-08T01:49:33;100745.34;;;15.35;99.34
37304;BME280;23188;51.188;16.374;2023-07-08T01:53:42;100742.33;;;15.37;99.31
37304;BME280;23188;51.188;16.374;2023-07-08T01:57:45;100741.70;;;15.36;99.48
37304;BME280;23188;51.188;16.374;2023-07-08T02:01:49;100740.63;;;15.36;99.66
37304;BME280;23188;51.188;16.374;2023-07-08T02:05:57;100738.30;;;15.36;99.47
37304;BME280;23188;51.188;16.374;2023-07-08T02:10:01;100739.81;;;15.30;99.84
37304;BME280;23188;51.188;16.374;2023-07-08T02:14:04;100741.65;;;15.25;99.79
37304;BME280;23188;51.188;16.374;2023-07-08T02:18:11;100739.95;;;15.19;99.91
37304;BME280;23188;51.188;16.374;2023-07-08T02:22:14;100737.73;;;15.18;99.12
37304;BME280;23188;51.188;16.374;2023-07-08T02:26:17;100734.79;;;15.11;99.49
37304;BME280;23188;51.188;16.374;2023-07-08T02:30:48;100735.90;;;15.01;100.00
37304;BME280;23188;51.188;16.374;2023-07-08T02:34:52;100727.73;;;15.00;100.00
37304;BME280;23188;51.188;16.374;2023-07-08T02:38:55;100726.27;;;15.06;99.99
37304;BME280;23188;51.188;16.374;2023-07-08T02:43:03;100724.83;;;15.08;99.33
37304;BME280;23188;51.188;16.374;2023-07-08T02:47:07;100729.33;;;15.04;99.01
37304;BME280;23188;51.188;16.374;2023-07-08T02:51:16;100730.29;;;15.02;98.93
37304;BME280;23188;51.188;16.374;2023-07-08T02:55:19;100728.35;;;14.97;99.11
37304;BME280;23188;51.188;16.374;2023-07-08T02:59:22;100729.89;;;14.92;99.39
37304;BME280;23188;51.188;16.374;2023-07-08T03:08:29;100728.05;;;14.99;98.85
37304;BME280;23188;51.188;16.374;2023-07-08T03:13:01;100733.95;;;15.03;98.41
37304;BME280;23188;51.188;16.374;2023-07-08T03:17:05;100736.09;;;15.03;98.21
37304;BME280;23188;51.188;16.374;2023-07-08T03:21:08;100737.83;;;15.07;98.05
37304;BME280;23188;51.188;16.374;2023-07-08T03:25:11;100741.86;;;15.13;98.06
37304;BME280;23188;51.188;16.374;2023-07-08T03:29:19;100741.45;;;15.23;97.91
37304;BME280;23188;51.188;16.374;2023-07-08T03:33:23;100744.58;;;15.36;97.46
37304;BME280;23188;51.188;16.374;2023-07-08T03:37:52;100740.23;;;15.44;96.67
37304;BME280;23188;51.188;16.374;2023-07-08T03:41:57;100741.25;;;15.52;96.29
37304;BME280;23188;51.188;16.374;2023-07-08T03:46:00;100742.79;;;15.63;95.98
37304;BME280;23188;51.188;16.374;2023-07-08T03:50:33;100746.50;;;15.74;95.85
37304;BME280;23188;51.188;16.374;2023-07-08T03:54:40;100746.12;;;15.82;95.42
37304;BME280;23188;51.188;16.374;2023-07-08T03:58:43;100747.48;;;15.89;95.94
37304;BME280;23188;51.188;16.374;2023-07-08T04:02:48;100739.52;;;15.97;95.81
37304;BME280;23188;51.188;16.374;2023-07-08T04:06:51;100737.66;;;16.05;95.42
37304;BME280;23188;51.188;16.374;2023-07-08T04:11:23;100741.88;;;16.17;95.33
37304;BME280;23188;51.188;16.374;2023-07-08T04:15:26;100747.19;;;16.41;96.47
37304;BME280;23188;51.188;16.374;2023-07-08T04:19:31;100747.78;;;16.66;96.39
37304;BME280;23188;51.188;16.374;2023-07-08T04:23:59;100743.13;;;17.00;96.82
37304;BME280;23188;51.188;16.374;2023-07-08T04:28:02;100737.58;;;17.82;95.22
37304;BME280;23188;51.188;16.374;2023-07-08T04:32:12;100732.17;;;19.08;90.34
37304;BME280;23188;51.188;16.374;2023-07-08T04:36:15;100730.23;;;20.45;82.54
37304;BME280;23188;51.188;16.374;2023-07-08T04:40:20;100719.82;;;21.55;76.44
37304;BME280;23188;51.188;16.374;2023-07-08T04:44:25;100716.84;;;22.46;72.63
37304;BME280;23188;51.188;16.374;2023-07-08T04:48:33;100720.73;;;23.27;69.94
37304;BME280;23188;51.188;16.374;2023-07-08T04:52:36;100721.23;;;23.90;66.86
37304;BME280;23188;51.188;16.374;2023-07-08T04:56:43;100722.62;;;24.45;64.79
37304;BME280;23188;51.188;16.374;2023-07-08T05:00:47;100729.27;;;24.85;63.57
37304;BME280;23188;51.188;16.374;2023-07-08T05:04:51;100728.58;;;25.09;62.74
37304;BME280;23188;51.188;16.374;2023-07-08T05:08:58;100719.77;;;25.47;62.18
37304;BME280;23188;51.188;16.374;2023-07-08T05:13:02;100718.77;;;26.04;60.82
37304;BME280;23188;51.188;16.374;2023-07-08T05:17:06;100715.77;;;26.38;58.37
37304;BME280;23188;51.188;16.374;2023-07-08T05:21:09;100720.46;;;26.73;57.42
37304;BME280;23188;51.188;16.374;2023-07-08T05:25:15;100715.02;;;27.10;56.51
37304;BME280;23188;51.188;16.374;2023-07-08T05:29:18;100714.70;;;27.48;56.17
37304;BME280;23188;51.188;16.374;2023-07-08T05:33:23;100717.96;;;27.75;55.08
37304;BME280;23188;51.188;16.374;2023-07-08T05:37:30;100720.58;;;27.56;55.82
37304;BME280;23188;51.188;16.374;2023-07-08T05:41:33;100717.82;;;27.82;56.38
37304;BME280;23188;51.188;16.374;2023-07-08T05:45:36;100713.70;;;27.78;54.13
37304;BME280;23188;51.188;16.374;2023-07-08T05:49:39;100715.52;;;27.55;55.15
37304;BME280;23188;51.188;16.374;2023-07-08T05:53:46;100712.93;;;27.64;55.19
37304;BME280;23188;51.188;16.374;2023-07-08T05:57:49;100709.89;;;27.78;55.22
37304;BME280;23188;51.188;16.374;2023-07-08T06:01:52;100712.02;;;27.94;54.82
37304;BME280;23188;51.188;16.374;2023-07-08T06:05:57;100710.70;;;28.12;54.84
37304;BME280;23188;51.188;16.374;2023-07-08T06:10:00;100712.80;;;28.40;53.89
37304;BME280;23188;51.188;16.374;2023-07-08T06:19:06;100717.84;;;29.19;53.66
37304;BME280;23188;51.188;16.374;2023-07-08T06:23:09;100718.83;;;29.54;51.96
37304;BME280;23188;51.188;16.374;2023-07-08T06:27:13;100711.15;;;30.04;52.60
37304;BME280;23188;51.188;16.374;2023-07-08T06:31:17;100706.34;;;30.39;50.64
37304;BME280;23188;51.188;16.374;2023-07-08T06:35:20;100704.48;;;30.39;51.14
37304;BME280;23188;51.188;16.374;2023-07-08T06:39:25;100706.36;;;30.69;50.17
37304;BME280;23188;51.188;16.374;2023-07-08T06:43:28;100703.57;;;30.88;48.74
37304;BME280;23188;51.188;16.374;2023-07-08T06:47:31;100705.02;;;31.02;49.41
37304;BME280;23188;51.188;16.374;2023-07-08T06:51:34;100703.64;;;31.08;49.87
37304;BME280;23188;51.188;16.374;2023-07-08T06:55:39;100705.77;;;30.93;48.35
37304;BME280;23188;51.188;16.374;2023-07-08T06:59:44;100706.06;;;30.85;48.48
37304;BME280;23188;51.188;16.374;2023-07-08T07:03:52;100704.55;;;30.87;49.01
37304;BME280;23188;51.188;16.374;2023-07-08T07:07:57;100706.99;;;31.04;48.10
37304;BME280;23188;51.188;16.374;2023-07-08T07:12:01;100710.80;;;31.20;47.25
37304;BME280;23188;51.188;16.374;2023-07-08T07:16:06;100707.35;;;31.43;48.11
37304;BME280;23188;51.188;16.374;2023-07-08T07:20:10;100710.88;;;31.80;45.38
37304;BME280;23188;51.188;16.374;2023-07-08T07:24:14;100711.84;;;31.97;45.64
37304;BME280;23188;51.188;16.374;2023-07-08T07:28:17;100701.94;;;32.14;45.83
37304;BME280;23188;51.188;16.374;2023-07-08T07:37:18;100709.35;;;32.30;45.50
37304;BME280;23188;51.188;16.374;2023-07-08T07:41:21;100706.90;;;32.32;43.69
37304;BME280;23188;51.188;16.374;2023-07-08T07:45:24;100703.37;;;32.36;44.36
37304;BME280;23188;51.188;16.374;2023-07-08T07:49:32;100699.87;;;32.53;44.31
37304;BME280;23188;51.188;16.374;2023-07-08T07:53:35;100700.41;;;32.68;43.38
37304;BME280;23188;51.188;16.374;2023-07-08T07:57:45;100698.17;;;32.62;43.47
37304;BME280;23188;51.188;16.374;2023-07-08T08:01:50;100700.45;;;32.86;43.38
37304;BME280;23188;51.188;16.374;2023-07-08T08:05:57;100696.81;;;32.95;42.73
37304;BME280;23188;51.188;16.374;2023-07-08T08:10:00;100695.86;;;33.00;42.26
37304;BME280;23188;51.188;16.374;2023-07-08T08:14:03;100692.41;;;32.96;42.78
37304;BME280;23188;51.188;16.374;2023-07-08T08:18:07;100698.39;;;33.09;42.33
37304;BME280;23188;51.188;16.374;2023-07-08T08:22:27;100695.05;;;33.36;41.56
37304;BME280;23188;51.188;16.374;2023-07-08T08:26:31;100688.79;;;33.74;41.28
37304;BME280;23188;51.188;16.374;2023-07-08T08:30:34;100691.71;;;33.79;39.35
37304;BME280;23188;51.188;16.374;2023-07-08T08:34:38;100694.79;;;33.69;39.90
37304;BME280;23188;51.188;16.374;2023-07-08T08:39:07;100687.40;;;33.52;39.12
37304;BME280;23188;51.188;16.374;2023-07-08T08:43:21;100690.62;;;33.23;38.57
37304;BME280;23188;51.188;16.374;2023-07-08T08:48:02;100687.02;;;32.97;39.02
37304;BME280;23188;51.188;16.374;2023-07-08T08:52:07;100688.79;;;32.66;39.80
37304;BME280;23188;51.188;16.374;2023-07-08T08:56:20;100692.39;;;32.61;39.78
37304;BME280;23188;51.188;16.374;2023-07-08T09:00:42;100688.92;;;32.84;41.05
37304;BME280;23188;51.188;16.374;2023-07-08T09:04:50;100684.35;;;32.91;39.13
37304;BME280;23188;51.188;16.374;2023-07-08T09:08:57;100684.25;;;32.72;38.13
37304;BME280;23188;51.188;16.374;2023-07-08T09:13:05;100676.87;;;32.49;39.22
37304;BME280;23188;51.188;16.374;2023-07-08T09:17:32;100678.56;;;32.29;39.35
37304;BME280;23188;51.188;16.374;2023-07-08T09:21:46;100676.27;;;32.16;39.19
37304;BME280;23188;51.188;16.374;2023-07-08T09:26:04;100671.65;;;32.11;37.91
37304;BME280;23188;51.188;16.374;2023-07-08T09:30:23;100667.22;;;32.14;38.42
37304;BME280;23188;51.188;16.374;2023-07-08T09:34:49;100671.75;;;32.34;42.49
37304;BME280;23188;51.188;16.374;2023-07-08T09:38:55;100671.13;;;32.34;38.17
37304;BME280;23188;51.188;16.374;2023-07-08T09:47:33;100657.08;;;32.50;38.68
37304;BME280;23188;51.188;16.374;2023-07-08T09:51:37;100654.47;;;32.34;38.45
37304;BME280;23188;51.188;16.374;2023-07-08T09:55:40;100654.97;;;32.41;37.21
37304;BME280;23188;51.188;16.374;2023-07-08T10:28:39;100647.02;;;32.39;37.65
37304;BME280;23188;51.188;16.374;2023-07-08T10:56:50;100636.95;;;32.34;40.80
37304;BME280;23188;51.188;16.374;2023-07-08T11:01:03;100627.06;;;32.49;39.69
37304;BME280;23188;51.188;16.374;2023-07-08T11:05:44;100624.16;;;32.53;38.82
37304;BME280;23188;51.188;16.374;2023-07-08T11:09:56;100623.25;;;32.47;39.32
37304;BME280;23188;51.188;16.374;2023-07-08T11:14:13;100619.08;;;32.28;37.77
37304;BME280;23188;51.188;16.374;2023-07-08T11:18:48;100613.94;;;32.12;38.40
37304;BME280;23188;51.188;16.374;2023-07-08T11:23:04;100616.20;;;32.05;38.40
37304;BME280;23188;51.188;16.374;2023-07-08T11:27:27;100619.07;;;32.14;38.94
37304;BME280;23188;51.188;16.374;2023-07-08T11:36:40;100613.16;;;32.54;41.63
37304;BME280;23188;51.188;16.374;2023-07-08T11:41:11;100608.05;;;32.58;38.19
37304;BME280;23188;51.188;16.374;2023-07-08T11:49:20;100596.17;;;32.80;40.22
37304;BME280;23188;51.188;16.374;2023-07-08T11:57:37;100590.38;;;32.86;35.87
37304;BME280;23188;51.188;16.374;2023-07-08T12:05:56;100585.45;;;32.81;38.39
37304;BME280;23188;51.188;16.374;2023-07-08T12:10:03;100585.27;;;32.80;37.81
37304;BME280;23188;51.188;16.374;2023-07-08T12:14:05;100580.53;;;32.79;36.04
37304;BME280;23188;51.188;16.374;2023-07-08T12:18:19;100586.59;;;32.58;37.01
37304;BME280;23188;51.188;16.374;2023-07-08T12:22:22;100580.85;;;32.37;37.12
37304;BME280;23188;51.188;16.374;2023-07-08T12:42:33;100550.33;;;33.39;39.32
37304;BME280;23188;51.188;16.374;2023-07-08T12:46:39;100546.58;;;33.56;38.80
37304;BME280;23188;51.188;16.374;2023-07-08T12:55:29;100534.95;;;33.67;38.13
37304;BME280;23188;51.188;16.374;2023-07-08T12:59:32;100538.91;;;33.47;34.98
37304;BME280;23188;51.188;16.374;2023-07-08T13:03:45;100537.31;;;33.32;35.24
37304;BME280;23188;51.188;16.374;2023-07-08T13:07:53;100529.76;;;33.09;35.16
37304;BME280;23188;51.188;16.374;2023-07-08T13:12:18;100534.48;;;33.00;35.29
37304;BME280;23188;51.188;16.374;2023-07-08T13:16:33;100527.89;;;32.90;35.58
37304;BME280;23188;51.188;16.374;2023-07-08T13:20:36;100524.10;;;32.96;35.30
37304;BME280;23188;51.188;16.374;2023-07-08T13:25:03;100519.36;;;32.95;34.31
37304;BME280;23188;51.188;16.374;2023-07-08T13:29:39;100520.49;;;32.77;33.98
37304;BME280;23188;51.188;16.374;2023-07-08T13:33:46;100514.54;;;32.79;33.76
37304;BME280;23188;51.188;16.374;2023-07-08T13:37:48;100507.67;;;32.96;37.67
37304;BME280;23188;51.188;16.374;2023-07-08T13:41:51;100508.72;;;33.12;35.70
37304;BME280;23188;51.188;16.374;2023-07-08T13:45:54;100507.30;;;33.15;33.22
37304;BME280;23188;51.188;16.374;2023-07-08T13:50:05;100504.23;;;33.26;34.95
37304;BME280;23188;51.188;16.374;2023-07-08T13:54:59;100502.75;;;33.35;33.19
37304;BME280;23188;51.188;16.374;2023-07-08T13:59:16;100502.80;;;33.38;34.33
37304;BME280;23188;51.188;16.374;2023-07-08T14:03:33;100496.38;;;33.50;36.99
37304;BME280;23188;51.188;16.374;2023-07-08T14:07:39;100501.91;;;33.64;37.00
37304;BME280;23188;51.188;16.374;2023-07-08T14:11:43;100502.30;;;33.67;36.93
37304;BME280;23188;51.188;16.374;2023-07-08T14:16:21;100499.34;;;33.40;36.06
37304;BME280;23188;51.188;16.374;2023-07-08T14:20:28;100502.56;;;32.96;36.25
37304;BME280;23188;51.188;16.374;2023-07-08T14:24:41;100507.86;;;32.86;38.60
37304;BME280;23188;51.188;16.374;2023-07-08T14:28:43;100502.66;;;32.85;40.26
37304;BME280;23188;51.188;16.374;2023-07-08T14:32:45;100500.23;;;32.93;37.04
37304;BME280;23188;51.188;16.374;2023-07-08T14:36:52;100497.09;;;32.89;36.95
37304;BME280;23188;51.188;16.374;2023-07-08T14:40:56;100500.45;;;32.89;37.50
37304;BME280;23188;51.188;16.374;2023-07-08T14:45:01;100491.95;;;32.77;36.47
37304;BME280;23188;51.188;16.374;2023-07-08T14:49:07;100491.38;;;32.83;38.85
37304;BME280;23188;51.188;16.374;2023-07-08T14:53:15;100487.02;;;32.94;37.55
37304;BME280;23188;51.188;16.374;2023-07-08T14:57:25;100487.32;;;32.99;37.23
37304;BME280;23188;51.188;16.374;2023-07-08T15:01:58;100487.20;;;32.98;36.36
37304;BME280;23188;51.188;16.374;2023-07-08T15:06:02;100483.20;;;33.05;35.70
37304;BME280;23188;51.188;16.374;2023-07-08T15:10:09;100481.27;;;33.07;35.43
37304;BME280;23188;51.188;16.374;2023-07-08T15:14:23;100480.68;;;33.26;34.72
37304;BME280;23188;51.188;16.374;2023-07-08T15:18:29;100474.71;;;33.46;35.60
37304;BME280;23188;51.188;16.374;2023-07-08T15:22:36;100476.97;;;33.68;33.97
37304;BME280;23188;51.188;16.374;2023-07-08T15:26:43;100474.86;;;33.90;33.83
37304;BME280;23188;51.188;16.374;2023-07-08T16:07:02;100463.67;;;33.80;36.33
37304;BME280;23188;51.188;16.374;2023-07-08T16:15:34;100465.86;;;33.24;36.42
37304;BME280;23188;51.188;16.374;2023-07-08T16:19:40;100466.85;;;33.19;39.56
37304;BME280;23188;51.188;16.374;2023-07-08T16:23:43;100462.92;;;33.20;38.67
37304;BME280;23188;51.188;16.374;2023-07-08T16:27:47;100464.74;;;33.18;41.39
37304;BME280;23188;51.188;16.374;2023-07-08T16:31:51;100464.76;;;33.22;41.50
37304;BME280;23188;51.188;16.374;2023-07-08T16:35:59;100466.52;;;33.24;37.95
37304;BME280;23188;51.188;16.374;2023-07-08T16:40:01;100459.80;;;33.26;38.22
37304;BME280;23188;51.188;16.374;2023-07-08T16:48:30;100462.70;;;33.12;36.83
37304;BME280;23188;51.188;16.374;2023-07-08T16:52:32;100460.50;;;32.90;37.23
37304;BME280;23188;51.188;16.374;2023-07-08T16:56:34;100457.27;;;32.65;37.08
37304;BME280;23188;51.188;16.374;2023-07-08T17:00:37;100461.31;;;32.55;36.95
37304;BME280;23188;51.188;16.374;2023-07-08T17:04:39;100459.32;;;32.52;40.43
37304;BME280;23188;51.188;16.374;2023-07-08T17:08:42;100462.23;;;32.48;42.24
37304;BME280;23188;51.188;16.374;2023-07-08T17:13:07;100461.25;;;32.31;40.52
37304;BME280;23188;51.188;16.374;2023-07-08T17:17:13;100461.96;;;32.10;40.86
37304;BME280;23188;51.188;16.374;2023-07-08T17:21:16;100459.70;;;32.00;41.24
37304;BME280;23188;51.188;16.374;2023-07-08T17:25:20;100460.27;;;31.94;40.32
37304;BME280;23188;51.188;16.374;2023-07-08T17:29:22;100458.75;;;31.89;38.97
37304;BME280;23188;51.188;16.374;2023-07-08T17:33:24;100457.05;;;31.84;39.45
37304;BME280;23188;51.188;16.374;2023-07-08T17:37:27;100457.81;;;31.75;39.87
37304;BME280;23188;51.188;16.374;2023-07-08T17:41:28;100456.30;;;31.61;40.32
37304;BME280;23188;51.188;16.374;2023-07-08T17:45:34;100453.61;;;31.47;41.33
37304;BME280;23188;51.188;16.374;2023-07-08T17:49:37;100454.13;;;31.30;40.87
37304;BME280;23188;51.188;16.374;2023-07-08T17:53:40;100454.71;;;31.13;39.07
37304;BME280;23188;51.188;16.374;2023-07-08T17:57:43;100456.95;;;30.99;40.36
37304;BME280;23188;51.188;16.374;2023-07-08T18:01:52;100453.90;;;30.81;41.62
37304;BME280;23188;51.188;16.374;2023-07-08T18:05:54;100450.27;;;30.67;41.20
37304;BME280;23188;51.188;16.374;2023-07-08T18:09:56;100455.33;;;30.55;42.04
37304;BME280;23188;51.188;16.374;2023-07-08T18:13:58;100454.21;;;30.41;41.82
37304;BME280;23188;51.188;16.374;2023-07-08T18:18:01;100461.30;;;30.25;45.56
37304;BME280;23188;51.188;16.374;2023-07-08T18:22:12;100458.86;;;30.04;47.78
37304;BME280;23188;51.188;16.374;2023-07-08T18:26:19;100458.20;;;29.75;48.78
37304;BME280;23188;51.188;16.374;2023-07-08T18:30:29;100458.21;;;29.46;49.64
37304;BME280;23188;51.188;16.374;2023-07-08T18:34:31;100459.30;;;29.15;52.98
37304;BME280;23188;51.188;16.374;2023-07-08T18:38:33;100459.33;;;28.87;51.50
37304;BME280;23188;51.188;16.374;2023-07-08T18:42:35;100457.98;;;28.62;52.31
37304;BME280;23188;51.188;16.374;2023-07-08T18:46:42;100463.64;;;28.34;52.99
37304;BME280;23188;51.188;16.374;2023-07-08T18:51:23;100465.49;;;28.07;54.13
37304;BME280;23188;51.188;16.374;2023-07-08T18:55:26;100470.33;;;27.76;54.23
37304;BME280;23188;51.188;16.374;2023-07-08T18:59:27;100477.48;;;27.34;53.96
37304;BME280;23188;51.188;16.374;2023-07-08T19:06:59;100483.17;;;26.91;56.73
37304;BME280;23188;51.188;16.374;2023-07-08T19:20:56;100496.57;;;25.81;59.54
37304;BME280;23188;51.188;16.374;2023-07-08T19:25:00;100500.62;;;25.47;59.27
37304;BME280;23188;51.188;16.374;2023-07-08T19:29:05;100503.02;;;25.24;61.13
37304;BME280;23188;51.188;16.374;2023-07-08T19:33:14;100505.44;;;24.99;62.37
37304;BME280;23188;51.188;16.374;2023-07-08T19:37:20;100513.55;;;24.73;63.22
37304;BME280;23188;51.188;16.374;2023-07-08T19:41:27;100513.55;;;24.41;61.90
37304;BME280;23188;51.188;16.374;2023-07-08T19:45:33;100521.73;;;24.08;63.84
37304;BME280;23188;51.188;16.374;2023-07-08T19:59:14;100533.61;;;23.44;66.25
37304;BME280;23188;51.188;16.374;2023-07-08T20:03:22;100535.65;;;23.21;67.60
37304;BME280;23188;51.188;16.374;2023-07-08T20:07:25;100540.02;;;23.01;68.93
37304;BME280;23188;51.188;16.374;2023-07-08T20:11:29;100543.45;;;22.85;69.28
37304;BME280;23188;51.188;16.374;2023-07-08T20:15:35;100540.14;;;22.71;70.37
37304;BME280;23188;51.188;16.374;2023-07-08T20:19:43;100546.03;;;22.53;72.04
37304;BME280;23188;51.188;16.374;2023-07-08T20:28:16;100552.90;;;22.09;74.31
37304;BME280;23188;51.188;16.374;2023-07-08T20:32:19;100554.70;;;22.02;74.24
37304;BME280;23188;51.188;16.374;2023-07-08T20:36:50;100555.76;;;21.94;75.00
37304;BME280;23188;51.188;16.374;2023-07-08T20:40:56;100556.63;;;21.80;75.42
37304;BME280;23188;51.188;16.374;2023-07-08T20:44:59;100563.42;;;21.71;75.80
37304;BME280;23188;51.188;16.374;2023-07-08T20:49:03;100568.77;;;21.66;76.10
37304;BME280;23188;51.188;16.374;2023-07-08T20:53:11;100569.41;;;21.57;76.58
37304;BME280;23188;51.188;16.374;2023-07-08T20:57:43;100567.77;;;21.52;75.96
37304;BME280;23188;51.188;16.374;2023-07-08T21:01:53;100565.14;;;21.48;76.02
37304;BME280;23188;51.188;16.374;2023-07-08T21:05:58;100569.48;;;21.41;76.64
37304;BME280;23188;51.188;16.374;2023-07-08T21:10:04;100567.91;;;21.34;76.00
37304;BME280;23188;51.188;16.374;2023-07-08T21:14:07;100567.52;;;21.30;76.16
37304;BME280;23188;51.188;16.374;2023-07-08T21:18:18;100567.27;;;21.25;75.55
37304;BME280;23188;51.188;16.374;2023-07-08T21:22:22;100566.73;;;21.22;75.48
37304;BME280;23188;51.188;16.374;2023-07-08T21:26:30;100573.02;;;21.20;75.40
37304;BME280;23188;51.188;16.374;2023-07-08T21:30:36;100574.52;;;21.16;75.65
37304;BME280;23188;51.188;16.374;2023-07-08T21:34:40;100575.56;;;21.07;76.27
37304;BME280;23188;51.188;16.374;2023-07-08T21:38:43;100581.30;;;20.94;77.47
37304;BME280;23188;51.188;16.374;2023-07-08T21:42:47;100578.45;;;20.77;78.04
37304;BME280;23188;51.188;16.374;2023-07-08T21:47:19;100581.00;;;20.63;78.99
37304;BME280;23188;51.188;16.374;2023-07-08T21:51:29;100581.24;;;20.52;79.42
37304;BME280;23188;51.188;16.374;2023-07-08T21:55:39;100580.76;;;20.41;79.43
37304;BME280;23188;51.188;16.374;2023-07-08T21:59:42;100583.81;;;20.27;80.23
37304;BME280;23188;51.188;16.374;2023-07-08T22:03:51;100582.45;;;20.12;80.99
37304;BME280;23188;51.188;16.374;2023-07-08T22:07:57;100583.89;;;20.00;81.39
37304;BME280;23188;51.188;16.374;2023-07-08T22:12:12;100585.92;;;19.90;82.18
37304;BME280;23188;51.188;16.374;2023-07-08T22:16:19;100584.98;;;19.83;82.76
37304;BME280;23188;51.188;16.374;2023-07-08T22:20:25;100585.88;;;19.73;83.18
37304;BME280;23188;51.188;16.374;2023-07-08T22:24:29;100589.92;;;19.65;83.61
37304;BME280;23188;51.188;16.374;2023-07-08T22:28:35;100590.73;;;19.59;84.22
37304;BME280;23188;51.188;16.374;2023-07-08T22:32:39;100588.34;;;19.52;84.47
37304;BME280;23188;51.188;16.374;2023-07-08T22:36:43;100589.89;;;19.38;85.89
37304;BME280;23188;51.188;16.374;2023-07-08T22:40:48;100592.52;;;19.12;87.60
37304;BME280;23188;51.188;16.374;2023-07-08T22:44:51;100589.84;;;18.92;87.91
37304;BME280;23188;51.188;16.374;2023-07-08T22:48:55;100595.13;;;18.74;88.94
37304;BME280;23188;51.188;16.374;2023-07-08T22:53:01;100597.56;;;18.57;89.32
37304;BME280;23188;51.188;16.374;2023-07-08T22:57:05;100598.38;;;18.46;89.12
37304;BME280;23188;51.188;16.374;2023-07-08T23:01:08;100593.45;;;18.46;89.61
37304;BME280;23188;51.188;16.374;2023-07-08T23:05:12;100592.15;;;18.49;89.35
37304;BME280;23188;51.188;16.374;2023-07-08T23:09:16;100590.22;;;18.43;89.47
37304;BME280;23188;51.188;16.374;2023-07-08T23:13:38;100595.12;;;18.30;90.30
37304;BME280;23188;51.188;16.374;2023-07-08T23:17:48;100596.06;;;18.24;90.22
37304;BME280;23188;51.188;16.374;2023-07-08T23:21:51;100596.01;;;18.24;90.43
37304;BME280;23188;51.188;16.374;2023-07-08T23:25:55;100597.10;;;18.26;89.96
37304;BME280;23188;51.188;16.374;2023-07-08T23:29:58;100599.10;;;18.26;89.64
37304;BME280;23188;51.188;16.374;2023-07-08T23:34:02;100596.40;;;18.20;89.47
37304;BME280;23188;51.188;16.374;2023-07-08T23:38:17;100596.98;;;18.14;89.57
37304;BME280;23188;51.188;16.374;2023-07-08T23:42:21;100601.42;;;18.09;90.01
37304;BME280;23188;51.188;16.374;2023-07-08T23:46:28;100597.41;;;18.07;90.32
37304;BME280;23188;51.188;16.374;2023-07-08T23:50:32;100595.70;;;18.01;91.28
37304;BME280;23188;51.188;16.374;2023-07-08T23:54:35;100598.02;;;17.93;92.20
37304;BME280;23188;51.188;16.374;2023-07-08T23:58:39;100604.66;;;17.67;95.25
